Flight Track Log - Related Links

Times and Time Zones

All times are in EDT time to prevent confusion due to time zone crossing. See the FIV521 flight status page for this flight to view local times or setup timezone preferences in your user account.

Time Position Orientation Groundspeed Altitude Reporting Facility
EDT Latitude Longitude Course Direction KTS MPH feet Rate Location/Type
Mon 03:02:58 PM 40.6194 -75.5419 252° West 187 215 6,000  Level New York Center
Mon 03:03:58 PM 40.5928 -75.6331 249° West 251 289 9,300 2,500 Climbing New York Center
Mon 03:04:58 PM 40.5556 -75.7233 242° Southwest 276 318 11,000 1,537 Climbing New York Center
Mon 03:05:59 PM 40.4897 -75.8058 224° Southwest 314 361 12,400 1,672 Climbing New York Center
Mon 03:07:00 PM 40.4278 -75.8886 226° Southwest 347 399 14,400 1,850 Climbing New York Center
Mon 03:07:59 PM 40.3481 -75.9917 225° Southwest 365 420 16,100 1,550 Climbing New York Center
Mon 03:09:00 PM 40.2558 -76.0064 187° South 353 406 17,500 1,109 Climbing New York Center
Mon 03:09:58 PM 40.1450 -76.0144 183° South 374 430 18,300 1,050 Climbing New York Center
Mon 03:11:00 PM 40.0358 -76.0333 188° South 392 451 19,600 1,377 Climbing New York Center
Mon 03:12:00 PM 39.9506 -76.1189 218° Southwest 377 434 21,100 1,438 Climbing New York Center
Mon 03:13:01 PM 39.8647 -76.2181 222° Southwest 397 457 22,500 1,462 Climbing New York Center
Mon 03:13:59 PM 39.7811 -76.3114 221° Southwest 402 463 24,000 1,686 Climbing New York Center
Mon 03:15:02 PM 39.6858 -76.4111 219° Southwest 385 443 25,900 1,659 Climbing Washington Center
Mon 03:16:02 PM 39.5997 -76.5019 219° Southwest 385 443 27,400 1,488 Climbing Washington Center
Mon 03:17:03 PM 39.5114 -76.5975 220° Southwest 398 458 28,900 1,300 Climbing Washington Center
Mon 03:18:02 PM 39.4231 -76.6931 220° Southwest 404 465 30,000 555 Climbing Washington Center
Mon 03:19:02 PM 39.3347 -76.7856 219° Southwest 411 473 30,000  Level Washington Center
Mon 03:20:03 PM 39.2442 -76.8806 219° Southwest 417 480 30,000  Level Washington Center
Mon 03:21:02 PM 39.1556 -76.9728 219° Southwest 422 486 30,000  Level Washington Center
Mon 03:22:02 PM 39.0669 -77.0672 220° Southwest 422 486 30,000  Level Washington Center
Mon 03:23:02 PM 38.9783 -77.1589 219° Southwest 422 486 30,000  Level Washington Center
Mon 03:24:02 PM 38.8894 -77.2506 219° Southwest 422 486 30,000  Level Washington Center
Mon 03:25:02 PM 38.8006 -77.3444 219° Southwest 422 486 30,000  Level Washington Center
Mon 03:26:02 PM 38.7094 -77.4381 219° Southwest 422 486 30,000  Level Washington Center
Mon 03:27:02 PM 38.6311 -77.5211 220° Southwest 422 486 30,000  Level Washington Center
Mon 03:28:02 PM 38.5419 -77.6117 218° Southwest 422 486 30,000  Level Washington Center
Mon 03:29:02 PM 38.4508 -77.7047 219° Southwest 422 486 30,000  Level Washington Center
Mon 03:30:02 PM 38.3636 -77.7950 219° Southwest 422 486 30,000  Level Washington Center
Mon 03:31:02 PM 38.2764 -77.8875 220° Southwest 422 486 30,000  Level Washington Center
Mon 03:32:03 PM 38.1872 -77.9772 218° Southwest 422 486 30,000  Level Washington Center
Mon 03:33:02 PM 38.1100 -78.0831 227° Southwest 409 471 30,000  Level Washington Center
Mon 03:34:02 PM 38.0347 -78.1858 227° Southwest 409 471 30,000  Level Washington Center
Mon 03:35:02 PM 37.9550 -78.3017 229° Southwest 403 464 30,000  Level Washington Center
Mon 03:36:02 PM 37.8883 -78.3939 228° Southwest 403 464 30,000 -350 Level Washington Center
Mon 03:37:02 PM 37.8128 -78.4964 227° Southwest 403 464 29,300 -843 Descending Washington Center
Mon 03:38:03 PM 37.7350 -78.6011 227° Southwest 408 470 28,300 -1,300 Descending Washington Center
Mon 03:39:02 PM 37.6553 -78.7056 226° Southwest 413 475 26,700 -1,550 Descending Washington Center
Mon 03:40:03 PM 37.5775 -78.8097 227° Southwest 413 475 25,200 -1,636 Descending Washington Center
Mon 03:41:03 PM 37.4908 -78.9264 227° Southwest 418 481 23,400 -1,513 Descending Washington Center
Mon 03:42:02 PM 37.4106 -79.0303 226° Southwest 418 481 22,200 -807 Descending Washington Center
Mon 03:43:02 PM 37.3325 -79.1336 226° Southwest 412 474 21,800 -843 Descending Washington Center
Mon 03:44:03 PM 37.2586 -79.2294 226° Southwest 407 468 20,500 -1,200 Descending Washington Center
Mon 03:45:02 PM 37.1889 -79.3331 230° Southwest 407 468 19,400 -1,109 Descending Washington Center
Mon 03:46:02 PM 37.1167 -79.4364 229° Southwest 401 461 18,300 -700 Descending Washington Center
Mon 03:47:02 PM 37.0572 -79.5297 231° Southwest 401 461 18,000 -200 Descending Washington Center
Mon 03:48:02 PM 36.9872 -79.6328 230° Southwest 395 455 17,900 -750 Descending Washington Center
Mon 03:49:02 PM 36.9189 -79.7331 230° Southwest 390 449 16,500 -1,400 Descending Washington Center
Mon 03:51:00 PM 36.7714 -79.9327 227° Southwest  Level FlightAware Approximate
Mon 03:58:00 PM 36.1013 -79.9411 180° South  Level Estimated
Mon 03:59:00 PM 36.1000 -79.9333 15° North  Level FlightAware Approximate
Mon 04:00:00 PM 36.1013 -79.9411 15° North  Level Estimated
Mon 04:01:00 PM 36.1000 -79.9333 15° North  Level FlightAware Approximate
Mon 04:02:00 PM 36.1013 -79.9411 15° North  Level Estimated
Mon 04:03:00 PM 36.1000 -79.9333 15° North  Level FlightAware Approximate
Mon 04:04:00 PM 36.1013 -79.9411 15° North  Level Estimated
Mon 04:05:00 PM 36.1000 -79.9333 15° North  Level FlightAware Approximate

Login

Don't have an account? Register now (free) for customized features, flight alerts, and more!